<?xml version="1.0" encoding="UTF-8" standalone="no" ?>
<gpx xmlns="http://www.topografix.com/GPX/1/1" xmlns:xsi="http://www.w3.org/2001/XMLSchema-instance" xsi:schemaLocation="http://www.topografix.com/GPX/1/1 http://www.topografix.com/GPX/1/1/gpx.xsd" version="1.1" creator="VisuGPX - https://www.visugpx.com">
  <metadata>
    <name>Munster 1</name>
  </metadata>
  <trk>
    <name><![CDATA[OR-4115345--Munster:M1]]></name>
    <trkseg>
      <trkpt lat="48.03981" lon="7.13254">
        <ele>385</ele>
        <time>2017-05-28T20:50:05Z</time>
      </trkpt>
      <trkpt lat="48.03969" lon="7.12886">
        <ele>395</ele>
        <time>2017-05-28T20:52:05Z</time>
      </trkpt>
      <trkpt lat="48.03998" lon="7.12909">
        <ele>397</ele>
        <time>2017-05-28T20:54:05Z</time>
      </trkpt>
      <trkpt lat="48.04046" lon="7.12991">
        <ele>395</ele>
        <time>2017-05-28T20:56:05Z</time>
      </trkpt>
      <trkpt lat="48.04104" lon="7.12963">
        <ele>398</ele>
        <time>2017-05-28T20:58:05Z</time>
      </trkpt>
      <trkpt lat="48.04114" lon="7.12883">
        <ele>402</ele>
        <time>2017-05-28T21:00:05Z</time>
      </trkpt>
      <trkpt lat="48.04107" lon="7.12778">
        <ele>408</ele>
        <time>2017-05-28T21:02:05Z</time>
      </trkpt>
      <trkpt lat="48.04099" lon="7.12687">
        <ele>416</ele>
        <time>2017-05-28T21:04:05Z</time>
      </trkpt>
      <trkpt lat="48.04168" lon="7.12545">
        <ele>423</ele>
        <time>2017-05-28T21:06:05Z</time>
      </trkpt>
      <trkpt lat="48.04208" lon="7.12347">
        <ele>435</ele>
        <time>2017-05-28T21:08:05Z</time>
      </trkpt>
      <trkpt lat="48.04225" lon="7.12251">
        <ele>441</ele>
        <time>2017-05-28T21:10:05Z</time>
      </trkpt>
      <trkpt lat="48.04216" lon="7.12187">
        <ele>450</ele>
        <time>2017-05-28T21:12:05Z</time>
      </trkpt>
      <trkpt lat="48.04252" lon="7.12133">
        <ele>449</ele>
        <time>2017-05-28T21:14:05Z</time>
      </trkpt>
      <trkpt lat="48.04272" lon="7.12051">
        <ele>458</ele>
        <time>2017-05-28T21:16:05Z</time>
      </trkpt>
      <trkpt lat="48.04298" lon="7.11956">
        <ele>469</ele>
        <time>2017-05-28T21:18:05Z</time>
      </trkpt>
      <trkpt lat="48.04333" lon="7.11815">
        <ele>473</ele>
        <time>2017-05-28T21:20:05Z</time>
      </trkpt>
      <trkpt lat="48.04331" lon="7.11764">
        <ele>475</ele>
        <time>2017-05-28T21:22:05Z</time>
      </trkpt>
      <trkpt lat="48.04291" lon="7.11683">
        <ele>490</ele>
        <time>2017-05-28T21:24:05Z</time>
      </trkpt>
      <trkpt lat="48.04273" lon="7.11574">
        <ele>495</ele>
        <time>2017-05-28T21:26:05Z</time>
      </trkpt>
      <trkpt lat="48.04216" lon="7.11424">
        <ele>514</ele>
        <time>2017-05-28T21:28:05Z</time>
      </trkpt>
      <trkpt lat="48.04184" lon="7.11324">
        <ele>515</ele>
        <time>2017-05-28T21:30:05Z</time>
      </trkpt>
      <trkpt lat="48.04141" lon="7.11267">
        <ele>524</ele>
        <time>2017-05-28T21:32:05Z</time>
      </trkpt>
      <trkpt lat="48.04108" lon="7.11206">
        <ele>536</ele>
        <time>2017-05-28T21:34:05Z</time>
      </trkpt>
      <trkpt lat="48.04091" lon="7.11124">
        <ele>542</ele>
        <time>2017-05-28T21:36:05Z</time>
      </trkpt>
      <trkpt lat="48.04102" lon="7.11068">
        <ele>544</ele>
        <time>2017-05-28T21:38:05Z</time>
      </trkpt>
      <trkpt lat="48.04145" lon="7.11075">
        <ele>534</ele>
        <time>2017-05-28T21:40:05Z</time>
      </trkpt>
      <trkpt lat="48.04168" lon="7.11064">
        <ele>530</ele>
        <time>2017-05-28T21:42:05Z</time>
      </trkpt>
      <trkpt lat="48.04187" lon="7.11022">
        <ele>530</ele>
        <time>2017-05-28T21:44:05Z</time>
      </trkpt>
      <trkpt lat="48.04192" lon="7.10902">
        <ele>540</ele>
        <time>2017-05-28T21:46:05Z</time>
      </trkpt>
      <trkpt lat="48.04179" lon="7.10833">
        <ele>551</ele>
        <time>2017-05-28T21:48:05Z</time>
      </trkpt>
      <trkpt lat="48.0417" lon="7.10718">
        <ele>561</ele>
        <time>2017-05-28T21:50:05Z</time>
      </trkpt>
      <trkpt lat="48.04167" lon="7.10647">
        <ele>565</ele>
        <time>2017-05-28T21:52:05Z</time>
      </trkpt>
      <trkpt lat="48.04173" lon="7.10608">
        <ele>567</ele>
        <time>2017-05-28T21:54:05Z</time>
      </trkpt>
      <trkpt lat="48.0419" lon="7.10572">
        <ele>572</ele>
        <time>2017-05-28T21:56:05Z</time>
      </trkpt>
      <trkpt lat="48.0421" lon="7.10574">
        <ele>572</ele>
        <time>2017-05-28T21:58:05Z</time>
      </trkpt>
      <trkpt lat="48.04269" lon="7.10798">
        <ele>543</ele>
        <time>2017-05-28T22:00:05Z</time>
      </trkpt>
      <trkpt lat="48.04349" lon="7.10986">
        <ele>507</ele>
        <time>2017-05-28T22:02:05Z</time>
      </trkpt>
      <trkpt lat="48.04404" lon="7.11072">
        <ele>503</ele>
        <time>2017-05-28T22:04:05Z</time>
      </trkpt>
      <trkpt lat="48.04485" lon="7.1113">
        <ele>502</ele>
        <time>2017-05-28T22:06:05Z</time>
      </trkpt>
      <trkpt lat="48.04579" lon="7.11148">
        <ele>497</ele>
        <time>2017-05-28T22:08:05Z</time>
      </trkpt>
      <trkpt lat="48.04623" lon="7.11109">
        <ele>490</ele>
        <time>2017-05-28T22:10:05Z</time>
      </trkpt>
      <trkpt lat="48.04709" lon="7.11043">
        <ele>489</ele>
        <time>2017-05-28T22:12:05Z</time>
      </trkpt>
      <trkpt lat="48.04779" lon="7.10995">
        <ele>482</ele>
        <time>2017-05-28T22:14:05Z</time>
      </trkpt>
      <trkpt lat="48.04818" lon="7.10905">
        <ele>485</ele>
        <time>2017-05-28T22:16:05Z</time>
      </trkpt>
      <trkpt lat="48.04893" lon="7.10945">
        <ele>463</ele>
        <time>2017-05-28T22:18:05Z</time>
      </trkpt>
      <trkpt lat="48.04973" lon="7.10929">
        <ele>453</ele>
        <time>2017-05-28T22:20:05Z</time>
      </trkpt>
      <trkpt lat="48.05103" lon="7.10816">
        <ele>444</ele>
        <time>2017-05-28T22:22:05Z</time>
      </trkpt>
      <trkpt lat="48.05135" lon="7.10806">
        <ele>442</ele>
        <time>2017-05-28T22:24:05Z</time>
      </trkpt>
      <trkpt lat="48.05228" lon="7.10525">
        <ele>447</ele>
        <time>2017-05-28T22:26:05Z</time>
      </trkpt>
      <trkpt lat="48.05221" lon="7.10206">
        <ele>463</ele>
        <time>2017-05-28T22:28:05Z</time>
      </trkpt>
      <trkpt lat="48.05204" lon="7.10184">
        <ele>468</ele>
        <time>2017-05-28T22:30:05Z</time>
      </trkpt>
      <trkpt lat="48.05162" lon="7.09999">
        <ele>468</ele>
        <time>2017-05-28T22:32:05Z</time>
      </trkpt>
      <trkpt lat="48.05164" lon="7.09878">
        <ele>465</ele>
        <time>2017-05-28T22:34:05Z</time>
      </trkpt>
      <trkpt lat="48.053" lon="7.09752">
        <ele>463</ele>
        <time>2017-05-28T22:36:05Z</time>
      </trkpt>
      <trkpt lat="48.05246" lon="7.09583">
        <ele>468</ele>
        <time>2017-05-28T22:38:05Z</time>
      </trkpt>
      <trkpt lat="48.05233" lon="7.09468">
        <ele>471</ele>
        <time>2017-05-28T22:40:05Z</time>
      </trkpt>
      <trkpt lat="48.05261" lon="7.09336">
        <ele>472</ele>
        <time>2017-05-28T22:42:05Z</time>
      </trkpt>
      <trkpt lat="48.05327" lon="7.0914">
        <ele>473</ele>
        <time>2017-05-28T22:44:05Z</time>
      </trkpt>
      <trkpt lat="48.05396" lon="7.08989">
        <ele>473</ele>
        <time>2017-05-28T22:46:05Z</time>
      </trkpt>
      <trkpt lat="48.05423" lon="7.08883">
        <ele>476</ele>
        <time>2017-05-28T22:48:05Z</time>
      </trkpt>
      <trkpt lat="48.0542" lon="7.08745">
        <ele>479</ele>
        <time>2017-05-28T22:50:05Z</time>
      </trkpt>
      <trkpt lat="48.05431" lon="7.08568">
        <ele>484</ele>
        <time>2017-05-28T22:52:05Z</time>
      </trkpt>
      <trkpt lat="48.05449" lon="7.08365">
        <ele>491</ele>
        <time>2017-05-28T22:54:05Z</time>
      </trkpt>
      <trkpt lat="48.05474" lon="7.08233">
        <ele>491</ele>
        <time>2017-05-28T22:56:05Z</time>
      </trkpt>
      <trkpt lat="48.05588" lon="7.08153">
        <ele>487</ele>
        <time>2017-05-28T22:58:05Z</time>
      </trkpt>
      <trkpt lat="48.05648" lon="7.08396">
        <ele>486</ele>
        <time>2017-05-28T23:00:05Z</time>
      </trkpt>
      <trkpt lat="48.05661" lon="7.08509">
        <ele>489</ele>
        <time>2017-05-28T23:02:05Z</time>
      </trkpt>
      <trkpt lat="48.05652" lon="7.08625">
        <ele>488</ele>
        <time>2017-05-28T23:04:05Z</time>
      </trkpt>
      <trkpt lat="48.05658" lon="7.0876">
        <ele>492</ele>
        <time>2017-05-28T23:06:05Z</time>
      </trkpt>
      <trkpt lat="48.05656" lon="7.08911">
        <ele>497</ele>
        <time>2017-05-28T23:08:05Z</time>
      </trkpt>
      <trkpt lat="48.05686" lon="7.08833">
        <ele>506</ele>
        <time>2017-05-28T23:10:05Z</time>
      </trkpt>
      <trkpt lat="48.05721" lon="7.08652">
        <ele>515</ele>
        <time>2017-05-28T23:12:05Z</time>
      </trkpt>
      <trkpt lat="48.05771" lon="7.08471">
        <ele>527</ele>
        <time>2017-05-28T23:14:05Z</time>
      </trkpt>
      <trkpt lat="48.05788" lon="7.08211">
        <ele>531</ele>
        <time>2017-05-28T23:16:05Z</time>
      </trkpt>
      <trkpt lat="48.05802" lon="7.08044">
        <ele>537</ele>
        <time>2017-05-28T23:18:05Z</time>
      </trkpt>
      <trkpt lat="48.05838" lon="7.07879">
        <ele>552</ele>
        <time>2017-05-28T23:20:05Z</time>
      </trkpt>
      <trkpt lat="48.05817" lon="7.07834">
        <ele>550</ele>
        <time>2017-05-28T23:22:05Z</time>
      </trkpt>
      <trkpt lat="48.05802" lon="7.07759">
        <ele>550</ele>
        <time>2017-05-28T23:24:05Z</time>
      </trkpt>
      <trkpt lat="48.05801" lon="7.07671">
        <ele>555</ele>
        <time>2017-05-28T23:26:05Z</time>
      </trkpt>
      <trkpt lat="48.05839" lon="7.07402">
        <ele>588</ele>
        <time>2017-05-28T23:28:05Z</time>
      </trkpt>
      <trkpt lat="48.05893" lon="7.07078">
        <ele>609</ele>
        <time>2017-05-28T23:30:05Z</time>
      </trkpt>
      <trkpt lat="48.05863" lon="7.06743">
        <ele>623</ele>
        <time>2017-05-28T23:32:05Z</time>
      </trkpt>
      <trkpt lat="48.05874" lon="7.06697">
        <ele>632</ele>
        <time>2017-05-28T23:34:05Z</time>
      </trkpt>
      <trkpt lat="48.05893" lon="7.0685">
        <ele>632</ele>
        <time>2017-05-28T23:36:05Z</time>
      </trkpt>
      <trkpt lat="48.05966" lon="7.07108">
        <ele>655</ele>
        <time>2017-05-28T23:38:05Z</time>
      </trkpt>
      <trkpt lat="48.06" lon="7.0737">
        <ele>673</ele>
        <time>2017-05-28T23:40:05Z</time>
      </trkpt>
      <trkpt lat="48.06048" lon="7.07522">
        <ele>668</ele>
        <time>2017-05-28T23:42:05Z</time>
      </trkpt>
      <trkpt lat="48.06092" lon="7.07556">
        <ele>670</ele>
        <time>2017-05-28T23:44:05Z</time>
      </trkpt>
      <trkpt lat="48.06132" lon="7.07563">
        <ele>671</ele>
        <time>2017-05-28T23:46:05Z</time>
      </trkpt>
      <trkpt lat="48.06158" lon="7.07539">
        <ele>679</ele>
        <time>2017-05-28T23:48:05Z</time>
      </trkpt>
      <trkpt lat="48.06187" lon="7.07481">
        <ele>690</ele>
        <time>2017-05-28T23:50:05Z</time>
      </trkpt>
      <trkpt lat="48.06216" lon="7.07433">
        <ele>695</ele>
        <time>2017-05-28T23:52:05Z</time>
      </trkpt>
      <trkpt lat="48.06242" lon="7.07395">
        <ele>698</ele>
        <time>2017-05-28T23:54:05Z</time>
      </trkpt>
      <trkpt lat="48.06297" lon="7.07377">
        <ele>701</ele>
        <time>2017-05-28T23:56:05Z</time>
      </trkpt>
      <trkpt lat="48.06345" lon="7.07371">
        <ele>702</ele>
        <time>2017-05-28T23:58:05Z</time>
      </trkpt>
      <trkpt lat="48.06385" lon="7.07381">
        <ele>703</ele>
        <time>2017-05-29T00:00:05Z</time>
      </trkpt>
      <trkpt lat="48.06409" lon="7.07393">
        <ele>702</ele>
        <time>2017-05-29T00:02:05Z</time>
      </trkpt>
      <trkpt lat="48.06445" lon="7.0739">
        <ele>707</ele>
        <time>2017-05-29T00:04:05Z</time>
      </trkpt>
      <trkpt lat="48.06497" lon="7.07398">
        <ele>711</ele>
        <time>2017-05-29T00:06:05Z</time>
      </trkpt>
      <trkpt lat="48.06521" lon="7.07407">
        <ele>712</ele>
        <time>2017-05-29T00:08:05Z</time>
      </trkpt>
      <trkpt lat="48.06543" lon="7.07419">
        <ele>712</ele>
        <time>2017-05-29T00:10:05Z</time>
      </trkpt>
      <trkpt lat="48.06548" lon="7.07456">
        <ele>710</ele>
        <time>2017-05-29T00:12:05Z</time>
      </trkpt>
      <trkpt lat="48.06536" lon="7.07485">
        <ele>706</ele>
        <time>2017-05-29T00:14:05Z</time>
      </trkpt>
      <trkpt lat="48.0651" lon="7.07517">
        <ele>702</ele>
        <time>2017-05-29T00:16:05Z</time>
      </trkpt>
      <trkpt lat="48.06373" lon="7.07622">
        <ele>691</ele>
        <time>2017-05-29T00:18:05Z</time>
      </trkpt>
      <trkpt lat="48.06335" lon="7.07669">
        <ele>690</ele>
        <time>2017-05-29T00:20:05Z</time>
      </trkpt>
      <trkpt lat="48.06313" lon="7.07751">
        <ele>692</ele>
        <time>2017-05-29T00:22:05Z</time>
      </trkpt>
      <trkpt lat="48.063" lon="7.07911">
        <ele>701</ele>
        <time>2017-05-29T00:24:05Z</time>
      </trkpt>
      <trkpt lat="48.063" lon="7.08022">
        <ele>713</ele>
        <time>2017-05-29T00:26:05Z</time>
      </trkpt>
      <trkpt lat="48.06303" lon="7.08056">
        <ele>719</ele>
        <time>2017-05-29T00:28:05Z</time>
      </trkpt>
      <trkpt lat="48.06264" lon="7.08086">
        <ele>714</ele>
        <time>2017-05-29T00:30:05Z</time>
      </trkpt>
      <trkpt lat="48.06209" lon="7.08108">
        <ele>707</ele>
        <time>2017-05-29T00:32:05Z</time>
      </trkpt>
      <trkpt lat="48.06227" lon="7.08116">
        <ele>712</ele>
        <time>2017-05-29T00:34:05Z</time>
      </trkpt>
      <trkpt lat="48.06277" lon="7.081">
        <ele>720</ele>
        <time>2017-05-29T00:36:05Z</time>
      </trkpt>
      <trkpt lat="48.06288" lon="7.08095">
        <ele>721</ele>
        <time>2017-05-29T00:38:05Z</time>
      </trkpt>
      <trkpt lat="48.06315" lon="7.0805">
        <ele>722</ele>
        <time>2017-05-29T00:40:05Z</time>
      </trkpt>
      <trkpt lat="48.06316" lon="7.08017">
        <ele>718</ele>
        <time>2017-05-29T00:42:05Z</time>
      </trkpt>
      <trkpt lat="48.06338" lon="7.07914">
        <ele>720</ele>
        <time>2017-05-29T00:44:05Z</time>
      </trkpt>
      <trkpt lat="48.0635" lon="7.07848">
        <ele>722</ele>
        <time>2017-05-29T00:46:05Z</time>
      </trkpt>
      <trkpt lat="48.06357" lon="7.07788">
        <ele>717</ele>
        <time>2017-05-29T00:48:05Z</time>
      </trkpt>
      <trkpt lat="48.06382" lon="7.0773">
        <ele>716</ele>
        <time>2017-05-29T00:50:05Z</time>
      </trkpt>
      <trkpt lat="48.06413" lon="7.07693">
        <ele>718</ele>
        <time>2017-05-29T00:52:05Z</time>
      </trkpt>
      <trkpt lat="48.0648" lon="7.07645">
        <ele>719</ele>
        <time>2017-05-29T00:54:05Z</time>
      </trkpt>
      <trkpt lat="48.06586" lon="7.07591">
        <ele>730</ele>
        <time>2017-05-29T00:56:05Z</time>
      </trkpt>
      <trkpt lat="48.06633" lon="7.07531">
        <ele>731</ele>
        <time>2017-05-29T00:58:05Z</time>
      </trkpt>
      <trkpt lat="48.06673" lon="7.07488">
        <ele>734</ele>
        <time>2017-05-29T01:00:05Z</time>
      </trkpt>
      <trkpt lat="48.06724" lon="7.07449">
        <ele>742</ele>
        <time>2017-05-29T01:02:05Z</time>
      </trkpt>
      <trkpt lat="48.06753" lon="7.07418">
        <ele>746</ele>
        <time>2017-05-29T01:04:05Z</time>
      </trkpt>
      <trkpt lat="48.06756" lon="7.07398">
        <ele>751</ele>
        <time>2017-05-29T01:06:05Z</time>
      </trkpt>
      <trkpt lat="48.06739" lon="7.07373">
        <ele>751</ele>
        <time>2017-05-29T01:08:05Z</time>
      </trkpt>
      <trkpt lat="48.06695" lon="7.07328">
        <ele>748</ele>
        <time>2017-05-29T01:10:05Z</time>
      </trkpt>
      <trkpt lat="48.0667" lon="7.07299">
        <ele>748</ele>
        <time>2017-05-29T01:12:05Z</time>
      </trkpt>
      <trkpt lat="48.06659" lon="7.07275">
        <ele>753</ele>
        <time>2017-05-29T01:14:05Z</time>
      </trkpt>
      <trkpt lat="48.06638" lon="7.07249">
        <ele>761</ele>
        <time>2017-05-29T01:16:05Z</time>
      </trkpt>
      <trkpt lat="48.06621" lon="7.07278">
        <ele>755</ele>
        <time>2017-05-29T01:18:05Z</time>
      </trkpt>
      <trkpt lat="48.06602" lon="7.07293">
        <ele>752</ele>
        <time>2017-05-29T01:20:05Z</time>
      </trkpt>
      <trkpt lat="48.06575" lon="7.07287">
        <ele>754</ele>
        <time>2017-05-29T01:22:05Z</time>
      </trkpt>
      <trkpt lat="48.0655" lon="7.07238">
        <ele>762</ele>
        <time>2017-05-29T01:24:05Z</time>
      </trkpt>
      <trkpt lat="48.06508" lon="7.07164">
        <ele>772</ele>
        <time>2017-05-29T01:26:05Z</time>
      </trkpt>
      <trkpt lat="48.06454" lon="7.07129">
        <ele>778</ele>
        <time>2017-05-29T01:28:05Z</time>
      </trkpt>
      <trkpt lat="48.06416" lon="7.07098">
        <ele>785</ele>
        <time>2017-05-29T01:30:05Z</time>
      </trkpt>
      <trkpt lat="48.06382" lon="7.07052">
        <ele>792</ele>
        <time>2017-05-29T01:32:05Z</time>
      </trkpt>
      <trkpt lat="48.06358" lon="7.06989">
        <ele>795</ele>
        <time>2017-05-29T01:34:05Z</time>
      </trkpt>
      <trkpt lat="48.0635" lon="7.06958">
        <ele>793</ele>
        <time>2017-05-29T01:36:05Z</time>
      </trkpt>
      <trkpt lat="48.06404" lon="7.06902">
        <ele>802</ele>
        <time>2017-05-29T01:38:05Z</time>
      </trkpt>
      <trkpt lat="48.06379" lon="7.06789">
        <ele>798</ele>
        <time>2017-05-29T01:40:05Z</time>
      </trkpt>
      <trkpt lat="48.06328" lon="7.0666">
        <ele>800</ele>
        <time>2017-05-29T01:42:05Z</time>
      </trkpt>
      <trkpt lat="48.06306" lon="7.06544">
        <ele>809</ele>
        <time>2017-05-29T01:44:05Z</time>
      </trkpt>
      <trkpt lat="48.06263" lon="7.06369">
        <ele>814</ele>
        <time>2017-05-29T01:46:05Z</time>
      </trkpt>
      <trkpt lat="48.06257" lon="7.06308">
        <ele>814</ele>
        <time>2017-05-29T01:48:05Z</time>
      </trkpt>
      <trkpt lat="48.06269" lon="7.06228">
        <ele>814</ele>
        <time>2017-05-29T01:50:05Z</time>
      </trkpt>
      <trkpt lat="48.06292" lon="7.06156">
        <ele>814</ele>
        <time>2017-05-29T01:52:05Z</time>
      </trkpt>
      <trkpt lat="48.06329" lon="7.06079">
        <ele>817</ele>
        <time>2017-05-29T01:54:05Z</time>
      </trkpt>
      <trkpt lat="48.06366" lon="7.06009">
        <ele>820</ele>
        <time>2017-05-29T01:56:05Z</time>
      </trkpt>
      <trkpt lat="48.06416" lon="7.05939">
        <ele>827</ele>
        <time>2017-05-29T01:58:05Z</time>
      </trkpt>
      <trkpt lat="48.06471" lon="7.05917">
        <ele>833</ele>
        <time>2017-05-29T02:00:05Z</time>
      </trkpt>
      <trkpt lat="48.06542" lon="7.0594">
        <ele>842</ele>
        <time>2017-05-29T02:02:05Z</time>
      </trkpt>
      <trkpt lat="48.06582" lon="7.05957">
        <ele>845</ele>
        <time>2017-05-29T02:04:05Z</time>
      </trkpt>
      <trkpt lat="48.06654" lon="7.05954">
        <ele>853</ele>
        <time>2017-05-29T02:06:05Z</time>
      </trkpt>
      <trkpt lat="48.06638" lon="7.05905">
        <ele>851</ele>
        <time>2017-05-29T02:08:05Z</time>
      </trkpt>
      <trkpt lat="48.06608" lon="7.05802">
        <ele>848</ele>
        <time>2017-05-29T02:10:05Z</time>
      </trkpt>
      <trkpt lat="48.066" lon="7.05741">
        <ele>846</ele>
        <time>2017-05-29T02:12:05Z</time>
      </trkpt>
      <trkpt lat="48.06628" lon="7.05646">
        <ele>851</ele>
        <time>2017-05-29T02:14:05Z</time>
      </trkpt>
      <trkpt lat="48.06666" lon="7.05558">
        <ele>855</ele>
        <time>2017-05-29T02:16:05Z</time>
      </trkpt>
      <trkpt lat="48.067" lon="7.05484">
        <ele>860</ele>
        <time>2017-05-29T02:18:05Z</time>
      </trkpt>
      <trkpt lat="48.06722" lon="7.05432">
        <ele>864</ele>
        <time>2017-05-29T02:20:05Z</time>
      </trkpt>
      <trkpt lat="48.0675" lon="7.05411">
        <ele>871</ele>
        <time>2017-05-29T02:22:05Z</time>
      </trkpt>
      <trkpt lat="48.06769" lon="7.05342">
        <ele>873</ele>
        <time>2017-05-29T02:24:05Z</time>
      </trkpt>
      <trkpt lat="48.0678" lon="7.05283">
        <ele>877</ele>
        <time>2017-05-29T02:26:05Z</time>
      </trkpt>
      <trkpt lat="48.06778" lon="7.05219">
        <ele>880</ele>
        <time>2017-05-29T02:28:05Z</time>
      </trkpt>
      <trkpt lat="48.06778" lon="7.05169">
        <ele>883</ele>
        <time>2017-05-29T02:30:05Z</time>
      </trkpt>
      <trkpt lat="48.0679" lon="7.05096">
        <ele>889</ele>
        <time>2017-05-29T02:32:05Z</time>
      </trkpt>
      <trkpt lat="48.06801" lon="7.05043">
        <ele>893</ele>
        <time>2017-05-29T02:34:05Z</time>
      </trkpt>
      <trkpt lat="48.06798" lon="7.05009">
        <ele>894</ele>
        <time>2017-05-29T02:36:05Z</time>
      </trkpt>
      <trkpt lat="48.06781" lon="7.04994">
        <ele>895</ele>
        <time>2017-05-29T02:38:05Z</time>
      </trkpt>
      <trkpt lat="48.06758" lon="7.04992">
        <ele>895</ele>
        <time>2017-05-29T02:40:05Z</time>
      </trkpt>
      <trkpt lat="48.06735" lon="7.05013">
        <ele>895</ele>
        <time>2017-05-29T02:42:05Z</time>
      </trkpt>
      <trkpt lat="48.06707" lon="7.05031">
        <ele>898</ele>
        <time>2017-05-29T02:44:05Z</time>
      </trkpt>
      <trkpt lat="48.0666" lon="7.05071">
        <ele>900</ele>
        <time>2017-05-29T02:46:05Z</time>
      </trkpt>
      <trkpt lat="48.06619" lon="7.05087">
        <ele>900</ele>
        <time>2017-05-29T02:48:05Z</time>
      </trkpt>
      <trkpt lat="48.06592" lon="7.05088">
        <ele>901</ele>
        <time>2017-05-29T02:50:05Z</time>
      </trkpt>
      <trkpt lat="48.06566" lon="7.05069">
        <ele>904</ele>
        <time>2017-05-29T02:52:05Z</time>
      </trkpt>
      <trkpt lat="48.06546" lon="7.05047">
        <ele>907</ele>
        <time>2017-05-29T02:54:05Z</time>
      </trkpt>
      <trkpt lat="48.06511" lon="7.05037">
        <ele>908</ele>
        <time>2017-05-29T02:56:05Z</time>
      </trkpt>
      <trkpt lat="48.06498" lon="7.05023">
        <ele>911</ele>
        <time>2017-05-29T02:58:05Z</time>
      </trkpt>
      <trkpt lat="48.06513" lon="7.0498">
        <ele>920</ele>
        <time>2017-05-29T03:00:05Z</time>
      </trkpt>
      <trkpt lat="48.06539" lon="7.04942">
        <ele>925</ele>
        <time>2017-05-29T03:02:05Z</time>
      </trkpt>
      <trkpt lat="48.06565" lon="7.04864">
        <ele>930</ele>
        <time>2017-05-29T03:04:05Z</time>
      </trkpt>
      <trkpt lat="48.06478" lon="7.04964">
        <ele>926</ele>
        <time>2017-05-29T03:06:05Z</time>
      </trkpt>
      <trkpt lat="48.06438" lon="7.05007">
        <ele>921</ele>
        <time>2017-05-29T03:08:05Z</time>
      </trkpt>
      <trkpt lat="48.06389" lon="7.05033">
        <ele>920</ele>
        <time>2017-05-29T03:10:05Z</time>
      </trkpt>
      <trkpt lat="48.06368" lon="7.05061">
        <ele>915</ele>
        <time>2017-05-29T03:12:05Z</time>
      </trkpt>
      <trkpt lat="48.0633" lon="7.05098">
        <ele>911</ele>
        <time>2017-05-29T03:14:05Z</time>
      </trkpt>
      <trkpt lat="48.06301" lon="7.05109">
        <ele>913</ele>
        <time>2017-05-29T03:16:05Z</time>
      </trkpt>
      <trkpt lat="48.06258" lon="7.05152">
        <ele>910</ele>
        <time>2017-05-29T03:18:05Z</time>
      </trkpt>
      <trkpt lat="48.06228" lon="7.0519">
        <ele>900</ele>
        <time>2017-05-29T03:20:05Z</time>
      </trkpt>
      <trkpt lat="48.06205" lon="7.05198">
        <ele>896</ele>
        <time>2017-05-29T03:22:05Z</time>
      </trkpt>
      <trkpt lat="48.0619" lon="7.05186">
        <ele>897</ele>
        <time>2017-05-29T03:24:05Z</time>
      </trkpt>
      <trkpt lat="48.06173" lon="7.05158">
        <ele>899</ele>
        <time>2017-05-29T03:26:05Z</time>
      </trkpt>
      <trkpt lat="48.06151" lon="7.05129">
        <ele>898</ele>
        <time>2017-05-29T03:28:05Z</time>
      </trkpt>
      <trkpt lat="48.06089" lon="7.0506">
        <ele>891</ele>
        <time>2017-05-29T03:30:05Z</time>
      </trkpt>
      <trkpt lat="48.06046" lon="7.04999">
        <ele>893</ele>
        <time>2017-05-29T03:32:05Z</time>
      </trkpt>
      <trkpt lat="48.06009" lon="7.04982">
        <ele>886</ele>
        <time>2017-05-29T03:34:05Z</time>
      </trkpt>
      <trkpt lat="48.05967" lon="7.04948">
        <ele>882</ele>
        <time>2017-05-29T03:36:05Z</time>
      </trkpt>
      <trkpt lat="48.05915" lon="7.04913">
        <ele>870</ele>
        <time>2017-05-29T03:38:05Z</time>
      </trkpt>
      <trkpt lat="48.05844" lon="7.04863">
        <ele>859</ele>
        <time>2017-05-29T03:40:05Z</time>
      </trkpt>
      <trkpt lat="48.05812" lon="7.0482">
        <ele>857</ele>
        <time>2017-05-29T03:42:05Z</time>
      </trkpt>
      <trkpt lat="48.05633" lon="7.04468">
        <ele>847</ele>
        <time>2017-05-29T03:44:05Z</time>
      </trkpt>
      <trkpt lat="48.0558" lon="7.04279">
        <ele>840</ele>
        <time>2017-05-29T03:46:05Z</time>
      </trkpt>
      <trkpt lat="48.05563" lon="7.042">
        <ele>831</ele>
        <time>2017-05-29T03:48:05Z</time>
      </trkpt>
      <trkpt lat="48.05564" lon="7.04112">
        <ele>820</ele>
        <time>2017-05-29T03:50:05Z</time>
      </trkpt>
      <trkpt lat="48.05609" lon="7.03999">
        <ele>817</ele>
        <time>2017-05-29T03:52:05Z</time>
      </trkpt>
      <trkpt lat="48.05653" lon="7.03905">
        <ele>812</ele>
        <time>2017-05-29T03:54:05Z</time>
      </trkpt>
      <trkpt lat="48.05668" lon="7.03829">
        <ele>805</ele>
        <time>2017-05-29T03:56:05Z</time>
      </trkpt>
      <trkpt lat="48.05686" lon="7.0365">
        <ele>802</ele>
        <time>2017-05-29T03:58:05Z</time>
      </trkpt>
      <trkpt lat="48.05686" lon="7.03596">
        <ele>802</ele>
        <time>2017-05-29T04:00:05Z</time>
      </trkpt>
      <trkpt lat="48.05675" lon="7.03541">
        <ele>804</ele>
        <time>2017-05-29T04:02:05Z</time>
      </trkpt>
      <trkpt lat="48.05655" lon="7.03519">
        <ele>803</ele>
        <time>2017-05-29T04:04:05Z</time>
      </trkpt>
      <trkpt lat="48.05622" lon="7.03503">
        <ele>800</ele>
        <time>2017-05-29T04:06:05Z</time>
      </trkpt>
      <trkpt lat="48.05584" lon="7.035">
        <ele>794</ele>
        <time>2017-05-29T04:08:05Z</time>
      </trkpt>
      <trkpt lat="48.05556" lon="7.03517">
        <ele>789</ele>
        <time>2017-05-29T04:10:05Z</time>
      </trkpt>
      <trkpt lat="48.05519" lon="7.03547">
        <ele>779</ele>
        <time>2017-05-29T04:12:05Z</time>
      </trkpt>
      <trkpt lat="48.05483" lon="7.03551">
        <ele>773</ele>
        <time>2017-05-29T04:14:05Z</time>
      </trkpt>
      <trkpt lat="48.05475" lon="7.03567">
        <ele>768</ele>
        <time>2017-05-29T04:16:05Z</time>
      </trkpt>
      <trkpt lat="48.05501" lon="7.03613">
        <ele>767</ele>
        <time>2017-05-29T04:18:05Z</time>
      </trkpt>
      <trkpt lat="48.05531" lon="7.03636">
        <ele>771</ele>
        <time>2017-05-29T04:20:05Z</time>
      </trkpt>
      <trkpt lat="48.05542" lon="7.03694">
        <ele>767</ele>
        <time>2017-05-29T04:22:05Z</time>
      </trkpt>
      <trkpt lat="48.05537" lon="7.0372">
        <ele>763</ele>
        <time>2017-05-29T04:24:05Z</time>
      </trkpt>
      <trkpt lat="48.05519" lon="7.03763">
        <ele>756</ele>
        <time>2017-05-29T04:26:05Z</time>
      </trkpt>
      <trkpt lat="48.05499" lon="7.03824">
        <ele>745</ele>
        <time>2017-05-29T04:28:05Z</time>
      </trkpt>
      <trkpt lat="48.05482" lon="7.03897">
        <ele>738</ele>
        <time>2017-05-29T04:30:05Z</time>
      </trkpt>
      <trkpt lat="48.05455" lon="7.03968">
        <ele>731</ele>
        <time>2017-05-29T04:32:05Z</time>
      </trkpt>
      <trkpt lat="48.05421" lon="7.04026">
        <ele>722</ele>
        <time>2017-05-29T04:34:05Z</time>
      </trkpt>
      <trkpt lat="48.05375" lon="7.04096">
        <ele>710</ele>
        <time>2017-05-29T04:36:05Z</time>
      </trkpt>
      <trkpt lat="48.05332" lon="7.04226">
        <ele>706</ele>
        <time>2017-05-29T04:38:05Z</time>
      </trkpt>
      <trkpt lat="48.05313" lon="7.04352">
        <ele>693</ele>
        <time>2017-05-29T04:40:05Z</time>
      </trkpt>
      <trkpt lat="48.05313" lon="7.04423">
        <ele>689</ele>
        <time>2017-05-29T04:42:05Z</time>
      </trkpt>
      <trkpt lat="48.05321" lon="7.04558">
        <ele>680</ele>
        <time>2017-05-29T04:44:05Z</time>
      </trkpt>
      <trkpt lat="48.05324" lon="7.04582">
        <ele>678</ele>
        <time>2017-05-29T04:46:05Z</time>
      </trkpt>
      <trkpt lat="48.05334" lon="7.04673">
        <ele>663</ele>
        <time>2017-05-29T04:48:05Z</time>
      </trkpt>
      <trkpt lat="48.05431" lon="7.04907">
        <ele>642</ele>
        <time>2017-05-29T04:50:05Z</time>
      </trkpt>
      <trkpt lat="48.05471" lon="7.05072">
        <ele>626</ele>
        <time>2017-05-29T04:52:05Z</time>
      </trkpt>
      <trkpt lat="48.05483" lon="7.0518">
        <ele>620</ele>
        <time>2017-05-29T04:54:05Z</time>
      </trkpt>
      <trkpt lat="48.05478" lon="7.05287">
        <ele>611</ele>
        <time>2017-05-29T04:56:05Z</time>
      </trkpt>
      <trkpt lat="48.05461" lon="7.05376">
        <ele>599</ele>
        <time>2017-05-29T04:58:05Z</time>
      </trkpt>
      <trkpt lat="48.05442" lon="7.05455">
        <ele>588</ele>
        <time>2017-05-29T05:00:05Z</time>
      </trkpt>
      <trkpt lat="48.05444" lon="7.05576">
        <ele>574</ele>
        <time>2017-05-29T05:02:05Z</time>
      </trkpt>
      <trkpt lat="48.05441" lon="7.05643">
        <ele>566</ele>
        <time>2017-05-29T05:04:05Z</time>
      </trkpt>
      <trkpt lat="48.05426" lon="7.05635">
        <ele>563</ele>
        <time>2017-05-29T05:06:05Z</time>
      </trkpt>
      <trkpt lat="48.05411" lon="7.0561">
        <ele>563</ele>
        <time>2017-05-29T05:08:05Z</time>
      </trkpt>
      <trkpt lat="48.05392" lon="7.05535">
        <ele>570</ele>
        <time>2017-05-29T05:10:05Z</time>
      </trkpt>
      <trkpt lat="48.05395" lon="7.05451">
        <ele>578</ele>
        <time>2017-05-29T05:12:05Z</time>
      </trkpt>
      <trkpt lat="48.05391" lon="7.0534">
        <ele>585</ele>
        <time>2017-05-29T05:14:05Z</time>
      </trkpt>
      <trkpt lat="48.05375" lon="7.0516">
        <ele>600</ele>
        <time>2017-05-29T05:16:05Z</time>
      </trkpt>
      <trkpt lat="48.05345" lon="7.0503">
        <ele>605</ele>
        <time>2017-05-29T05:18:05Z</time>
      </trkpt>
      <trkpt lat="48.05301" lon="7.04925">
        <ele>614</ele>
        <time>2017-05-29T05:20:05Z</time>
      </trkpt>
      <trkpt lat="48.05245" lon="7.0482">
        <ele>618</ele>
        <time>2017-05-29T05:22:05Z</time>
      </trkpt>
      <trkpt lat="48.05215" lon="7.0473">
        <ele>626</ele>
        <time>2017-05-29T05:24:05Z</time>
      </trkpt>
      <trkpt lat="48.05198" lon="7.04651">
        <ele>631</ele>
        <time>2017-05-29T05:26:05Z</time>
      </trkpt>
      <trkpt lat="48.05182" lon="7.04434">
        <ele>641</ele>
        <time>2017-05-29T05:28:05Z</time>
      </trkpt>
      <trkpt lat="48.05172" lon="7.0439">
        <ele>642</ele>
        <time>2017-05-29T05:30:05Z</time>
      </trkpt>
      <trkpt lat="48.05107" lon="7.0434">
        <ele>654</ele>
        <time>2017-05-29T05:32:05Z</time>
      </trkpt>
      <trkpt lat="48.05049" lon="7.04325">
        <ele>664</ele>
        <time>2017-05-29T05:34:05Z</time>
      </trkpt>
      <trkpt lat="48.05025" lon="7.0434">
        <ele>666</ele>
        <time>2017-05-29T05:36:05Z</time>
      </trkpt>
      <trkpt lat="48.05002" lon="7.04412">
        <ele>662</ele>
        <time>2017-05-29T05:38:05Z</time>
      </trkpt>
      <trkpt lat="48.05006" lon="7.0455">
        <ele>658</ele>
        <time>2017-05-29T05:40:05Z</time>
      </trkpt>
      <trkpt lat="48.05033" lon="7.04703">
        <ele>649</ele>
        <time>2017-05-29T05:42:05Z</time>
      </trkpt>
      <trkpt lat="48.05094" lon="7.04867">
        <ele>630</ele>
        <time>2017-05-29T05:44:05Z</time>
      </trkpt>
      <trkpt lat="48.05098" lon="7.04948">
        <ele>623</ele>
        <time>2017-05-29T05:46:05Z</time>
      </trkpt>
      <trkpt lat="48.05104" lon="7.05025">
        <ele>618</ele>
        <time>2017-05-29T05:48:05Z</time>
      </trkpt>
      <trkpt lat="48.0511" lon="7.0509">
        <ele>616</ele>
        <time>2017-05-29T05:50:05Z</time>
      </trkpt>
      <trkpt lat="48.05214" lon="7.052">
        <ele>588</ele>
        <time>2017-05-29T05:52:05Z</time>
      </trkpt>
      <trkpt lat="48.05239" lon="7.05236">
        <ele>579</ele>
        <time>2017-05-29T05:54:05Z</time>
      </trkpt>
      <trkpt lat="48.05267" lon="7.05285">
        <ele>574</ele>
        <time>2017-05-29T05:56:05Z</time>
      </trkpt>
      <trkpt lat="48.05296" lon="7.05331">
        <ele>571</ele>
        <time>2017-05-29T05:58:05Z</time>
      </trkpt>
      <trkpt lat="48.05345" lon="7.05363">
        <ele>573</ele>
        <time>2017-05-29T06:00:05Z</time>
      </trkpt>
      <trkpt lat="48.05435" lon="7.05744">
        <ele>553</ele>
        <time>2017-05-29T06:02:05Z</time>
      </trkpt>
      <trkpt lat="48.05453" lon="7.05849">
        <ele>546</ele>
        <time>2017-05-29T06:04:05Z</time>
      </trkpt>
      <trkpt lat="48.05452" lon="7.05876">
        <ele>542</ele>
        <time>2017-05-29T06:06:05Z</time>
      </trkpt>
      <trkpt lat="48.05432" lon="7.05995">
        <ele>528</ele>
        <time>2017-05-29T06:08:05Z</time>
      </trkpt>
      <trkpt lat="48.05422" lon="7.06078">
        <ele>525</ele>
        <time>2017-05-29T06:10:05Z</time>
      </trkpt>
      <trkpt lat="48.05428" lon="7.0619">
        <ele>523</ele>
        <time>2017-05-29T06:12:05Z</time>
      </trkpt>
      <trkpt lat="48.05415" lon="7.06293">
        <ele>520</ele>
        <time>2017-05-29T06:14:05Z</time>
      </trkpt>
      <trkpt lat="48.05408" lon="7.06366">
        <ele>520</ele>
        <time>2017-05-29T06:16:05Z</time>
      </trkpt>
      <trkpt lat="48.05425" lon="7.06502">
        <ele>512</ele>
        <time>2017-05-29T06:18:05Z</time>
      </trkpt>
      <trkpt lat="48.05377" lon="7.06635">
        <ele>517</ele>
        <time>2017-05-29T06:20:05Z</time>
      </trkpt>
      <trkpt lat="48.05342" lon="7.06709">
        <ele>531</ele>
        <time>2017-05-29T06:22:05Z</time>
      </trkpt>
      <trkpt lat="48.05356" lon="7.06859">
        <ele>528</ele>
        <time>2017-05-29T06:24:05Z</time>
      </trkpt>
      <trkpt lat="48.0544" lon="7.07182">
        <ele>504</ele>
        <time>2017-05-29T06:26:05Z</time>
      </trkpt>
      <trkpt lat="48.05397" lon="7.07084">
        <ele>514</ele>
        <time>2017-05-29T06:28:05Z</time>
      </trkpt>
      <trkpt lat="48.0538" lon="7.07116">
        <ele>521</ele>
        <time>2017-05-29T06:30:05Z</time>
      </trkpt>
      <trkpt lat="48.0537" lon="7.07192">
        <ele>528</ele>
        <time>2017-05-29T06:32:05Z</time>
      </trkpt>
      <trkpt lat="48.05366" lon="7.07286">
        <ele>532</ele>
        <time>2017-05-29T06:34:05Z</time>
      </trkpt>
      <trkpt lat="48.0536" lon="7.07561">
        <ele>538</ele>
        <time>2017-05-29T06:36:05Z</time>
      </trkpt>
      <trkpt lat="48.05348" lon="7.07741">
        <ele>554</ele>
        <time>2017-05-29T06:38:05Z</time>
      </trkpt>
      <trkpt lat="48.05314" lon="7.07953">
        <ele>566</ele>
        <time>2017-05-29T06:40:05Z</time>
      </trkpt>
      <trkpt lat="48.05283" lon="7.08007">
        <ele>577</ele>
        <time>2017-05-29T06:42:05Z</time>
      </trkpt>
      <trkpt lat="48.05272" lon="7.0806">
        <ele>584</ele>
        <time>2017-05-29T06:44:05Z</time>
      </trkpt>
      <trkpt lat="48.05267" lon="7.08177">
        <ele>594</ele>
        <time>2017-05-29T06:46:05Z</time>
      </trkpt>
      <trkpt lat="48.05238" lon="7.08286">
        <ele>601</ele>
        <time>2017-05-29T06:48:05Z</time>
      </trkpt>
      <trkpt lat="48.05213" lon="7.08347">
        <ele>603</ele>
        <time>2017-05-29T06:50:05Z</time>
      </trkpt>
      <trkpt lat="48.05169" lon="7.0836">
        <ele>616</ele>
        <time>2017-05-29T06:52:05Z</time>
      </trkpt>
      <trkpt lat="48.05122" lon="7.08356">
        <ele>623</ele>
        <time>2017-05-29T06:54:05Z</time>
      </trkpt>
      <trkpt lat="48.05004" lon="7.08382">
        <ele>634</ele>
        <time>2017-05-29T06:56:05Z</time>
      </trkpt>
      <trkpt lat="48.04907" lon="7.08397">
        <ele>647</ele>
        <time>2017-05-29T06:58:05Z</time>
      </trkpt>
      <trkpt lat="48.0486" lon="7.08379">
        <ele>658</ele>
        <time>2017-05-29T07:00:05Z</time>
      </trkpt>
      <trkpt lat="48.04782" lon="7.08372">
        <ele>677</ele>
        <time>2017-05-29T07:02:05Z</time>
      </trkpt>
      <trkpt lat="48.0476" lon="7.084">
        <ele>677</ele>
        <time>2017-05-29T07:04:05Z</time>
      </trkpt>
      <trkpt lat="48.04755" lon="7.08467">
        <ele>671</ele>
        <time>2017-05-29T07:06:05Z</time>
      </trkpt>
      <trkpt lat="48.04741" lon="7.08536">
        <ele>673</ele>
        <time>2017-05-29T07:08:05Z</time>
      </trkpt>
      <trkpt lat="48.04726" lon="7.08642">
        <ele>677</ele>
        <time>2017-05-29T07:10:05Z</time>
      </trkpt>
      <trkpt lat="48.0469" lon="7.0874">
        <ele>684</ele>
        <time>2017-05-29T07:12:05Z</time>
      </trkpt>
      <trkpt lat="48.04626" lon="7.08818">
        <ele>692</ele>
        <time>2017-05-29T07:14:05Z</time>
      </trkpt>
      <trkpt lat="48.04574" lon="7.08871">
        <ele>692</ele>
        <time>2017-05-29T07:16:05Z</time>
      </trkpt>
      <trkpt lat="48.043" lon="7.08873">
        <ele>704</ele>
        <time>2017-05-29T07:18:05Z</time>
      </trkpt>
      <trkpt lat="48.04266" lon="7.08866">
        <ele>702</ele>
        <time>2017-05-29T07:20:05Z</time>
      </trkpt>
      <trkpt lat="48.0424" lon="7.08837">
        <ele>706</ele>
        <time>2017-05-29T07:22:05Z</time>
      </trkpt>
      <trkpt lat="48.04306" lon="7.08826">
        <ele>717</ele>
        <time>2017-05-29T07:24:05Z</time>
      </trkpt>
      <trkpt lat="48.04228" lon="7.08742">
        <ele>736</ele>
        <time>2017-05-29T07:26:05Z</time>
      </trkpt>
      <trkpt lat="48.04152" lon="7.08732">
        <ele>733</ele>
        <time>2017-05-29T07:28:05Z</time>
      </trkpt>
      <trkpt lat="48.04116" lon="7.08729">
        <ele>732</ele>
        <time>2017-05-29T07:30:05Z</time>
      </trkpt>
      <trkpt lat="48.04067" lon="7.08674">
        <ele>738</ele>
        <time>2017-05-29T07:32:05Z</time>
      </trkpt>
      <trkpt lat="48.04028" lon="7.08633">
        <ele>746</ele>
        <time>2017-05-29T07:34:05Z</time>
      </trkpt>
      <trkpt lat="48.03974" lon="7.08625">
        <ele>745</ele>
        <time>2017-05-29T07:36:05Z</time>
      </trkpt>
      <trkpt lat="48.03956" lon="7.08633">
        <ele>742</ele>
        <time>2017-05-29T07:38:05Z</time>
      </trkpt>
      <trkpt lat="48.03898" lon="7.08665">
        <ele>734</ele>
        <time>2017-05-29T07:40:05Z</time>
      </trkpt>
      <trkpt lat="48.03854" lon="7.08762">
        <ele>741</ele>
        <time>2017-05-29T07:42:05Z</time>
      </trkpt>
      <trkpt lat="48.03903" lon="7.08874">
        <ele>742</ele>
        <time>2017-05-29T07:44:05Z</time>
      </trkpt>
      <trkpt lat="48.03958" lon="7.08976">
        <ele>733</ele>
        <time>2017-05-29T07:46:05Z</time>
      </trkpt>
      <trkpt lat="48.04003" lon="7.09084">
        <ele>721</ele>
        <time>2017-05-29T07:48:05Z</time>
      </trkpt>
      <trkpt lat="48.04039" lon="7.09239">
        <ele>720</ele>
        <time>2017-05-29T07:50:05Z</time>
      </trkpt>
      <trkpt lat="48.04122" lon="7.09354">
        <ele>713</ele>
        <time>2017-05-29T07:52:05Z</time>
      </trkpt>
      <trkpt lat="48.0421" lon="7.09419">
        <ele>704</ele>
        <time>2017-05-29T07:54:05Z</time>
      </trkpt>
      <trkpt lat="48.04289" lon="7.09473">
        <ele>688</ele>
        <time>2017-05-29T07:56:05Z</time>
      </trkpt>
      <trkpt lat="48.04352" lon="7.09623">
        <ele>692</ele>
        <time>2017-05-29T07:58:05Z</time>
      </trkpt>
      <trkpt lat="48.04442" lon="7.09695">
        <ele>678</ele>
        <time>2017-05-29T08:00:05Z</time>
      </trkpt>
      <trkpt lat="48.04509" lon="7.09772">
        <ele>670</ele>
        <time>2017-05-29T08:02:05Z</time>
      </trkpt>
      <trkpt lat="48.04748" lon="7.10025">
        <ele>625</ele>
        <time>2017-05-29T08:04:05Z</time>
      </trkpt>
      <trkpt lat="48.04748" lon="7.10075">
        <ele>621</ele>
        <time>2017-05-29T08:06:05Z</time>
      </trkpt>
      <trkpt lat="48.04721" lon="7.10137">
        <ele>620</ele>
        <time>2017-05-29T08:08:05Z</time>
      </trkpt>
      <trkpt lat="48.04698" lon="7.10212">
        <ele>616</ele>
        <time>2017-05-29T08:10:05Z</time>
      </trkpt>
      <trkpt lat="48.04699" lon="7.10232">
        <ele>612</ele>
        <time>2017-05-29T08:12:05Z</time>
      </trkpt>
      <trkpt lat="48.0467" lon="7.1029">
        <ele>617</ele>
        <time>2017-05-29T08:14:05Z</time>
      </trkpt>
      <trkpt lat="48.04652" lon="7.10342">
        <ele>620</ele>
        <time>2017-05-29T08:16:05Z</time>
      </trkpt>
      <trkpt lat="48.0466" lon="7.10417">
        <ele>616</ele>
        <time>2017-05-29T08:18:05Z</time>
      </trkpt>
      <trkpt lat="48.04696" lon="7.10467">
        <ele>600</ele>
        <time>2017-05-29T08:20:05Z</time>
      </trkpt>
      <trkpt lat="48.04706" lon="7.10562">
        <ele>592</ele>
        <time>2017-05-29T08:22:05Z</time>
      </trkpt>
      <trkpt lat="48.04678" lon="7.10657">
        <ele>594</ele>
        <time>2017-05-29T08:24:05Z</time>
      </trkpt>
      <trkpt lat="48.04636" lon="7.10744">
        <ele>591</ele>
        <time>2017-05-29T08:26:05Z</time>
      </trkpt>
      <trkpt lat="48.04522" lon="7.10928">
        <ele>567</ele>
        <time>2017-05-29T08:28:05Z</time>
      </trkpt>
      <trkpt lat="48.04448" lon="7.10922">
        <ele>563</ele>
        <time>2017-05-29T08:30:05Z</time>
      </trkpt>
      <trkpt lat="48.0435" lon="7.10792">
        <ele>572</ele>
        <time>2017-05-29T08:32:05Z</time>
      </trkpt>
      <trkpt lat="48.0428" lon="7.10681">
        <ele>568</ele>
        <time>2017-05-29T08:34:05Z</time>
      </trkpt>
      <trkpt lat="48.0424" lon="7.1061">
        <ele>565</ele>
        <time>2017-05-29T08:36:05Z</time>
      </trkpt>
      <trkpt lat="48.04221" lon="7.10582">
        <ele>569</ele>
        <time>2017-05-29T08:38:05Z</time>
      </trkpt>
      <trkpt lat="48.0419" lon="7.10572">
        <ele>572</ele>
        <time>2017-05-29T08:40:05Z</time>
      </trkpt>
      <trkpt lat="48.04173" lon="7.10608">
        <ele>567</ele>
        <time>2017-05-29T08:42:05Z</time>
      </trkpt>
      <trkpt lat="48.04165" lon="7.10681">
        <ele>564</ele>
        <time>2017-05-29T08:44:05Z</time>
      </trkpt>
      <trkpt lat="48.04176" lon="7.10759">
        <ele>557</ele>
        <time>2017-05-29T08:46:05Z</time>
      </trkpt>
      <trkpt lat="48.04176" lon="7.10816">
        <ele>553</ele>
        <time>2017-05-29T08:48:05Z</time>
      </trkpt>
      <trkpt lat="48.04189" lon="7.10878">
        <ele>544</ele>
        <time>2017-05-29T08:50:05Z</time>
      </trkpt>
      <trkpt lat="48.04193" lon="7.10935">
        <ele>537</ele>
        <time>2017-05-29T08:52:05Z</time>
      </trkpt>
      <trkpt lat="48.04193" lon="7.10989">
        <ele>532</ele>
        <time>2017-05-29T08:54:05Z</time>
      </trkpt>
      <trkpt lat="48.04187" lon="7.11022">
        <ele>530</ele>
        <time>2017-05-29T08:56:05Z</time>
      </trkpt>
      <trkpt lat="48.04168" lon="7.11064">
        <ele>530</ele>
        <time>2017-05-29T08:58:05Z</time>
      </trkpt>
      <trkpt lat="48.04118" lon="7.11066">
        <ele>541</ele>
        <time>2017-05-29T09:00:05Z</time>
      </trkpt>
      <trkpt lat="48.04091" lon="7.11077">
        <ele>545</ele>
        <time>2017-05-29T09:02:05Z</time>
      </trkpt>
      <trkpt lat="48.04063" lon="7.11145">
        <ele>551</ele>
        <time>2017-05-29T09:04:05Z</time>
      </trkpt>
      <trkpt lat="48.0406" lon="7.11226">
        <ele>557</ele>
        <time>2017-05-29T09:06:05Z</time>
      </trkpt>
      <trkpt lat="48.04066" lon="7.11297">
        <ele>559</ele>
        <time>2017-05-29T09:08:05Z</time>
      </trkpt>
      <trkpt lat="48.04077" lon="7.11345">
        <ele>559</ele>
        <time>2017-05-29T09:10:05Z</time>
      </trkpt>
      <trkpt lat="48.0409" lon="7.1142">
        <ele>557</ele>
        <time>2017-05-29T09:12:05Z</time>
      </trkpt>
      <trkpt lat="48.04096" lon="7.11484">
        <ele>557</ele>
        <time>2017-05-29T09:14:05Z</time>
      </trkpt>
      <trkpt lat="48.04102" lon="7.11518">
        <ele>555</ele>
        <time>2017-05-29T09:16:05Z</time>
      </trkpt>
      <trkpt lat="48.04128" lon="7.11588">
        <ele>549</ele>
        <time>2017-05-29T09:18:05Z</time>
      </trkpt>
      <trkpt lat="48.04146" lon="7.11656">
        <ele>543</ele>
        <time>2017-05-29T09:20:05Z</time>
      </trkpt>
      <trkpt lat="48.0417" lon="7.11736">
        <ele>536</ele>
        <time>2017-05-29T09:22:05Z</time>
      </trkpt>
      <trkpt lat="48.04171" lon="7.11766">
        <ele>535</ele>
        <time>2017-05-29T09:24:05Z</time>
      </trkpt>
      <trkpt lat="48.04156" lon="7.11856">
        <ele>529</ele>
        <time>2017-05-29T09:26:05Z</time>
      </trkpt>
      <trkpt lat="48.04124" lon="7.11974">
        <ele>512</ele>
        <time>2017-05-29T09:28:05Z</time>
      </trkpt>
      <trkpt lat="48.04105" lon="7.12056">
        <ele>501</ele>
        <time>2017-05-29T09:30:05Z</time>
      </trkpt>
      <trkpt lat="48.04075" lon="7.12114">
        <ele>497</ele>
        <time>2017-05-29T09:32:05Z</time>
      </trkpt>
      <trkpt lat="48.04046" lon="7.12108">
        <ele>495</ele>
        <time>2017-05-29T09:34:05Z</time>
      </trkpt>
      <trkpt lat="48.0401" lon="7.12104">
        <ele>493</ele>
        <time>2017-05-29T09:36:05Z</time>
      </trkpt>
      <trkpt lat="48.04" lon="7.12127">
        <ele>488</ele>
        <time>2017-05-29T09:38:05Z</time>
      </trkpt>
      <trkpt lat="48.04012" lon="7.12219">
        <ele>476</ele>
        <time>2017-05-29T09:40:05Z</time>
      </trkpt>
      <trkpt lat="48.0402" lon="7.12414">
        <ele>451</ele>
        <time>2017-05-29T09:42:05Z</time>
      </trkpt>
      <trkpt lat="48.04021" lon="7.12495">
        <ele>443</ele>
        <time>2017-05-29T09:44:05Z</time>
      </trkpt>
      <trkpt lat="48.04017" lon="7.12612">
        <ele>427</ele>
        <time>2017-05-29T09:46:05Z</time>
      </trkpt>
      <trkpt lat="48.04029" lon="7.12697">
        <ele>414</ele>
        <time>2017-05-29T09:48:05Z</time>
      </trkpt>
      <trkpt lat="48.04057" lon="7.12831">
        <ele>405</ele>
        <time>2017-05-29T09:50:05Z</time>
      </trkpt>
      <trkpt lat="48.04091" lon="7.12931">
        <ele>401</ele>
        <time>2017-05-29T09:52:05Z</time>
      </trkpt>
      <trkpt lat="48.04104" lon="7.12963">
        <ele>398</ele>
        <time>2017-05-29T09:54:05Z</time>
      </trkpt>
      <trkpt lat="48.04069" lon="7.12986">
        <ele>397</ele>
        <time>2017-05-29T09:56:05Z</time>
      </trkpt>
    </trkseg>
  </trk>
</gpx>